Time;durP1;ratioP1;P1;durP2;ratioP2;P2;SDS_P1;SDS_P2;PMS_P1;PMS_P2;Temp;Humidity;BMP_temperature;BMP_pressure;BME280_temperature;BME280_humidity;BME280_pressure;Samples;Min_cycle;Max_cycle;Signal;HPM_P1;HPM_P2
2024/01/04 00:01:11;;;;;;;;;;;;;;;10.38;66.01;98130.44;4304741;33;33290;-85
2024/01/04 00:03:40;;;;;;;;;;;;;;;10.34;66.32;98118.53;4317318;33;34176;-85
2024/01/04 00:06:08;;;;;;;;;;;;;;;10.23;66.94;98125.81;4325038;33;33628;-85
2024/01/04 00:08:40;;;;;;;;;;;;;;;10.50;66.02;98123.12;4330057;33;34688;-85
2024/01/04 00:11:09;;;;;;;;;;;;;;;10.48;66.06;98132.69;4330456;33;33670;-85
2024/01/04 00:13:39;;;;;;;;;;;;;;;10.45;66.17;98121.53;4328318;33;33627;-84
2024/01/04 00:16:15;;;;;;;;;;;;;;;10.44;65.96;98126.81;4325438;33;33950;-85
2024/01/04 00:18:43;;;;;;;;;;;;;;;10.46;65.85;98132.75;4325267;33;33734;-85
2024/01/04 00:21:15;;;;;;;;;;;;;;;10.49;65.86;98116.25;4331100;33;32904;-85
2024/01/04 00:23:43;;;;;;;;;;;;;;;10.49;65.66;98117.09;4324038;33;33754;-85
2024/01/04 00:26:13;;;;;;;;;;;;;;;10.51;65.45;98125.66;4325337;33;33986;-85
2024/01/04 00:28:46;;;;;;;;;;;;;;;10.58;65.23;98124.53;4325318;33;35214;-85
2024/01/04 00:31:19;;;;;;;;;;;;;;;10.20;66.70;98124.19;4325544;33;33004;-86
2024/01/04 00:33:47;;;;;;;;;;;;;;;10.37;65.93;98125.34;4331197;33;33651;-85
2024/01/04 00:36:19;;;;;;;;;;;;;;;10.41;65.96;98119.13;4326362;33;34867;-85
2024/01/04 00:38:48;;;;;;;;;;;;;;;10.28;66.37;98123.91;4315941;33;34137;-85
2024/01/04 00:41:25;;;;;;;;;;;;;;;10.32;66.05;98114.31;4325289;33;33359;-85
2024/01/04 00:43:54;;;;;;;;;;;;;;;10.20;66.82;98118.16;4330477;33;34079;-85
2024/01/04 00:46:24;;;;;;;;;;;;;;;10.31;66.20;98120.38;4324646;33;34010;-85
2024/01/04 00:48:52;;;;;;;;;;;;;;;10.33;66.20;98115.97;4324739;33;33750;-85
2024/01/04 00:51:22;;;;;;;;;;;;;;;10.31;66.44;98125.56;4325768;33;33905;-85
2024/01/04 00:53:50;;;;;;;;;;;;;;;10.36;66.14;98123.63;4325218;33;33957;-85
2024/01/04 00:56:20;;;;;;;;;;;;;;;10.34;66.22;98125.44;4330093;33;33818;-85
2024/01/04 00:58:51;;;;;;;;;;;;;;;10.46;65.84;98125.84;4325162;33;34123;-85
2024/01/04 01:01:23;;;;;;;;;;;;;;;10.35;66.23;98122.78;4325799;33;33606;-85
2024/01/04 01:03:54;;;;;;;;;;;;;;;10.26;66.59;98128.28;4329050;33;33123;-85
2024/01/04 01:06:29;;;;;;;;;;;;;;;10.25;66.63;98130.03;4330796;33;34958;-85
2024/01/04 01:08:58;;;;;;;;;;;;;;;10.13;66.83;98127.91;4326325;33;34357;-85
2024/01/04 01:11:27;;;;;;;;;;;;;;;10.33;66.15;98118.56;4325447;33;33922;-85
2024/01/04 01:13:56;;;;;;;;;;;;;;;10.55;65.24;98118.59;4327406;33;34979;-86
2024/01/04 01:16:33;;;;;;;;;;;;;;;10.51;65.46;98101.47;4325697;33;33436;-85
2024/01/04 01:19:02;;;;;;;;;;;;;;;10.80;64.31;98084.75;4330730;33;35057;-84
2024/01/04 01:21:32;;;;;;;;;;;;;;;10.55;65.13;98069.34;4324393;33;32994;-84
2024/01/04 01:24:01;;;;;;;;;;;;;;;10.42;65.65;98079.34;4323877;33;34786;-84
2024/01/04 01:26:30;;;;;;;;;;;;;;;10.56;65.08;98065.81;4319930;33;34004;-85
2024/01/04 01:28:59;;;;;;;;;;;;;;;10.26;66.09;98066.06;4326531;33;35275;-85
2024/01/04 01:31:29;;;;;;;;;;;;;;;10.13;66.42;98070.06;4327839;33;34462;-86
2024/01/04 01:34:02;;;;;;;;;;;;;;;10.05;66.75;98075.50;4323810;33;34539;-85
2024/01/04 01:36:37;;;;;;;;;;;;;;;9.92;67.49;98089.81;4324462;33;33427;-85
2024/01/04 01:39:06;;;;;;;;;;;;;;;10.06;66.30;98084.97;4315928;33;35015;-85
2024/01/04 01:41:37;;;;;;;;;;;;;;;10.32;65.87;98075.41;4329255;33;33589;-85
2024/01/04 01:44:06;;;;;;;;;;;;;;;10.33;65.63;98077.94;4326459;33;33605;-85
2024/01/04 01:46:43;;;;;;;;;;;;;;;10.24;65.63;98089.47;4325477;33;34943;-84
2024/01/04 01:49:12;;;;;;;;;;;;;;;10.29;65.54;98093.66;4324896;33;35000;-85
2024/01/04 01:51:40;;;;;;;;;;;;;;;10.40;65.49;98107.06;4326317;33;33991;-85
2024/01/04 01:54:09;;;;;;;;;;;;;;;10.17;66.06;98100.09;4329495;33;34838;-85
2024/01/04 01:56:37;;;;;;;;;;;;;;;10.21;66.04;98094.75;4326862;33;34873;-84
2024/01/04 01:59:11;;;;;;;;;;;;;;;10.16;66.57;98095.84;4318149;33;33799;-84
2024/01/04 02:01:53;;;;;;;;;;;;;;;10.21;66.25;98093.91;4324773;33;32997;-85
2024/01/04 02:04:25;;;;;;;;;;;;;;;10.03;66.99;98090.28;4329409;33;33891;-84
2024/01/04 02:06:53;;;;;;;;;;;;;;;10.29;66.29;98094.50;4329274;33;34672;-84
2024/01/04 02:09:26;;;;;;;;;;;;;;;10.08;66.73;98100.47;4317771;33;35042;-85
2024/01/04 02:12:03;;;;;;;;;;;;;;;10.02;67.18;98097.19;4324302;33;34193;-84
2024/01/04 02:14:35;;;;;;;;;;;;;;;10.06;66.79;98091.91;4324943;33;34084;-85
2024/01/04 02:17:10;;;;;;;;;;;;;;;10.09;67.06;98092.62;4329575;33;34654;-85
2024/01/04 02:19:39;;;;;;;;;;;;;;;10.03;66.94;98088.53;4324238;33;33056;-84
2024/01/04 02:22:09;;;;;;;;;;;;;;;10.03;66.97;98090.28;4324279;33;34011;-85
2024/01/04 02:24:41;;;;;;;;;;;;;;;10.02;66.84;98097.19;4323776;33;34463;-84
2024/01/04 02:27:16;;;;;;;;;;;;;;;10.04;66.77;98102.31;4323907;33;33973;-85
2024/01/04 02:29:44;;;;;;;;;;;;;;;10.08;66.58;98103.91;4329324;33;33865;-84
2024/01/04 02:32:17;;;;;;;;;;;;;;;9.83;67.38;98094.44;4321632;33;33661;-85
2024/01/04 02:34:45;;;;;;;;;;;;;;;9.85;67.58;98078.81;4329845;33;34036;-84
2024/01/04 02:37:14;;;;;;;;;;;;;;;9.93;67.21;98073.34;4326213;33;34113;-85
2024/01/04 02:39:44;;;;;;;;;;;;;;;9.88;67.13;98077.84;4331348;33;34652;-84
2024/01/04 02:42:13;;;;;;;;;;;;;;;9.95;66.50;98081.91;4328101;33;32810;-85
2024/01/04 02:44:44;;;;;;;;;;;;;;;10.08;66.56;98090.94;4331132;33;33869;-85
2024/01/04 02:47:20;;;;;;;;;;;;;;;9.94;66.89;98099.22;4325536;33;34568;-85
2024/01/04 02:49:48;;;;;;;;;;;;;;;10.06;66.41;98102.28;4325965;33;34357;-85
2024/01/04 02:52:19;;;;;;;;;;;;;;;10.04;66.64;98108.34;4330529;33;34161;-84
2024/01/04 02:54:49;;;;;;;;;;;;;;;9.90;66.92;98095.03;4327841;33;33418;-84
2024/01/04 02:57:23;;;;;;;;;;;;;;;9.81;67.23;98106.59;4326265;33;33902;-85
2024/01/04 02:59:52;;;;;;;;;;;;;;;9.92;66.86;98118.31;4326096;33;33162;-85
2024/01/04 03:02:22;;;;;;;;;;;;;;;9.85;67.20;98114.25;4330276;33;33673;-85
2024/01/04 03:04:50;;;;;;;;;;;;;;;9.95;66.95;98115.59;4322572;33;34590;-85
2024/01/04 03:07:19;;;;;;;;;;;;;;;9.79;67.38;98107.53;4326486;33;33446;-85
2024/01/04 03:09:54;;;;;;;;;;;;;;;9.80;67.08;98109.22;4325968;33;34668;-84
2024/01/04 03:12:23;;;;;;;;;;;;;;;9.72;67.18;98101.72;4327322;33;32732;-84
2024/01/04 03:14:55;;;;;;;;;;;;;;;9.37;68.60;98103.81;4331749;33;33885;-85
2024/01/04 03:17:28;;;;;;;;;;;;;;;9.27;68.87;98110.16;4324459;33;34588;-84
2024/01/04 03:19:56;;;;;;;;;;;;;;;9.52;68.10;98098.97;4325655;33;33884;-85
2024/01/04 03:22:25;;;;;;;;;;;;;;;9.53;67.61;98100.69;4326312;33;33205;-85
2024/01/04 03:24:56;;;;;;;;;;;;;;;9.12;68.95;98090.81;4323466;33;33848;-85
2024/01/04 03:27:26;;;;;;;;;;;;;;;9.07;69.47;98092.72;4331677;33;34416;-86
2024/01/04 03:29:55;;;;;;;;;;;;;;;9.44;68.28;98088.87;4325355;33;33668;-85
2024/01/04 03:32:24;;;;;;;;;;;;;;;9.49;67.93;98081.81;4326696;33;34164;-85
2024/01/04 03:34:59;;;;;;;;;;;;;;;9.54;67.60;98086.81;4325962;33;33270;-84
2024/01/04 03:37:28;;;;;;;;;;;;;;;9.34;68.60;98083.19;4331032;33;34175;-85
2024/01/04 03:40:06;;;;;;;;;;;;;;;9.34;68.49;98092.69;4326212;33;33569;-84
2024/01/04 03:42:37;;;;;;;;;;;;;;;9.27;68.78;98078.25;4325883;33;33286;-84
2024/01/04 03:45:07;;;;;;;;;;;;;;;9.10;69.64;98097.78;4327599;33;33815;-85
2024/01/04 03:47:38;;;;;;;;;;;;;;;8.87;70.53;98085.59;4325777;33;33852;-85
2024/01/04 03:50:07;;;;;;;;;;;;;;;9.24;69.43;98099.06;4317773;33;33206;-84
2024/01/04 03:52:36;;;;;;;;;;;;;;;9.23;69.25;98077.53;4320157;33;33671;-85
2024/01/04 03:55:07;;;;;;;;;;;;;;;9.03;69.99;98083.34;4326647;33;34564;-85
2024/01/04 03:57:37;;;;;;;;;;;;;;;9.08;69.73;98072.84;4325938;33;34588;-85
2024/01/04 04:00:06;;;;;;;;;;;;;;;9.18;69.39;98069.06;4331100;33;34620;-85
2024/01/04 04:02:39;;;;;;;;;;;;;;;9.09;69.34;98069.38;4331217;33;32686;-85
2024/01/04 04:05:08;;;;;;;;;;;;;;;9.19;69.05;98063.00;4328389;33;33509;-85
2024/01/04 04:07:37;;;;;;;;;;;;;;;9.17;69.16;98057.03;4311608;33;33483;-85
2024/01/04 04:10:08;;;;;;;;;;;;;;;9.41;68.05;98057.94;4325509;33;33929;-85
2024/01/04 04:12:38;;;;;;;;;;;;;;;9.22;69.19;98059.47;4331467;33;33947;-84
2024/01/04 04:15:12;;;;;;;;;;;;;;;8.82;70.23;98081.44;4330469;33;33767;-84
2024/01/04 04:17:47;;;;;;;;;;;;;;;9.32;68.72;98084.97;4320726;33;34102;-84
2024/01/04 04:20:16;;;;;;;;;;;;;;;9.14;69.47;98090.78;4324832;33;34240;-85
2024/01/04 04:22:45;;;;;;;;;;;;;;;9.52;68.32;98091.19;4331355;33;33537;-85
2024/01/04 04:25:15;;;;;;;;;;;;;;;9.18;69.42;98087.16;4330977;33;34783;-85
2024/01/04 04:27:48;;;;;;;;;;;;;;;9.12;69.99;98100.31;4324834;33;34059;-85
2024/01/04 04:30:18;;;;;;;;;;;;;;;9.18;70.21;98103.56;4325361;33;34437;-85
2024/01/04 04:32:50;;;;;;;;;;;;;;;9.15;70.03;98116.56;4327991;33;33364;-85
2024/01/04 04:35:19;;;;;;;;;;;;;;;9.11;70.21;98119.31;4330805;33;33755;-85
2024/01/04 04:37:48;;;;;;;;;;;;;;;9.22;69.97;98116.38;4325610;33;33577;-84
2024/01/04 04:40:20;;;;;;;;;;;;;;;9.16;70.23;98120.03;4324111;33;34484;-85
2024/01/04 04:42:50;;;;;;;;;;;;;;;9.19;70.04;98112.16;4322426;33;33026;-84
2024/01/04 04:45:19;;;;;;;;;;;;;;;9.27;69.61;98112.75;4325287;33;34315;-85
2024/01/04 04:47:48;;;;;;;;;;;;;;;9.14;69.90;98104.56;4330325;33;34554;-85
2024/01/04 04:50:21;;;;;;;;;;;;;;;9.08;69.87;98101.31;4324816;33;33967;-85
2024/01/04 04:52:52;;;;;;;;;;;;;;;8.84;70.60;98106.38;4319396;33;33006;-85
2024/01/04 04:55:22;;;;;;;;;;;;;;;9.26;69.29;98087.78;4323438;33;34201;-84
2024/01/04 04:57:51;;;;;;;;;;;;;;;9.24;69.60;98093.91;4330737;33;35787;-85
2024/01/04 05:00:23;;;;;;;;;;;;;;;9.25;69.30;98080.91;4324397;33;34388;-85
2024/01/04 05:02:52;;;;;;;;;;;;;;;9.45;68.55;98089.72;4325910;33;33216;-84
2024/01/04 05:05:23;;;;;;;;;;;;;;;9.33;68.85;98088.44;4327874;33;33911;-85
2024/01/04 05:08:02;;;;;;;;;;;;;;;9.31;69.09;98088.47;4324615;33;34244;-85
2024/01/04 05:10:32;;;;;;;;;;;;;;;9.42;68.40;98088.09;4316286;33;33520;-84
2024/01/04 05:13:06;;;;;;;;;;;;;;;9.46;68.44;98086.25;4319641;33;33740;-85
2024/01/04 05:15:35;;;;;;;;;;;;;;;9.16;69.21;98091.56;4328661;33;33663;-84
2024/01/04 05:18:10;;;;;;;;;;;;;;;8.98;69.78;98093.84;4320262;33;34718;-85
2024/01/04 05:20:40;;;;;;;;;;;;;;;9.32;68.60;98087.56;4324181;33;34747;-85
2024/01/04 05:23:12;;;;;;;;;;;;;;;9.14;69.14;98095.94;4330326;33;32907;-85
2024/01/04 05:25:49;;;;;;;;;;;;;;;8.94;69.96;98102.63;4325682;33;34264;-86
2024/01/04 05:28:17;;;;;;;;;;;;;;;9.04;69.37;98099.75;4324857;33;35547;-85
2024/01/04 05:30:46;;;;;;;;;;;;;;;9.07;69.63;98104.81;4324234;33;34333;-85
2024/01/04 05:33:14;;;;;;;;;;;;;;;9.24;69.05;98099.91;4328972;33;34414;-85
2024/01/04 05:35:44;;;;;;;;;;;;;;;9.11;69.19;98103.78;4325331;33;34430;-85
2024/01/04 05:38:14;;;;;;;;;;;;;;;9.10;69.44;98109.88;4324245;33;33916;-85
2024/01/04 05:40:48;;;;;;;;;;;;;;;9.19;69.25;98107.00;4324225;33;34074;-84
2024/01/04 05:43:17;;;;;;;;;;;;;;;9.29;68.79;98115.28;4326432;33;34107;-85
2024/01/04 05:45:45;;;;;;;;;;;;;;;9.25;69.20;98117.13;4329317;33;34708;-85
2024/01/04 05:48:19;;;;;;;;;;;;;;;9.19;69.54;98118.19;4323855;33;34045;-84
2024/01/04 05:50:51;;;;;;;;;;;;;;;9.31;69.04;98127.28;4324229;33;34476;-84
2024/01/04 05:53:19;;;;;;;;;;;;;;;9.51;68.26;98144.72;4329576;33;33507;-85
2024/01/04 05:55:54;;;;;;;;;;;;;;;9.32;69.11;98144.50;4324896;33;33586;-86
2024/01/04 05:58:23;;;;;;;;;;;;;;;9.33;69.13;98135.00;4327505;33;33784;-85
2024/01/04 06:00:51;;;;;;;;;;;;;;;9.24;69.15;98130.12;4322184;33;34023;-84
2024/01/04 06:03:22;;;;;;;;;;;;;;;9.13;69.82;98138.22;4326274;33;33222;-84
2024/01/04 06:05:56;;;;;;;;;;;;;;;9.34;68.89;98139.28;4324354;33;33754;-84
2024/01/04 06:08:26;;;;;;;;;;;;;;;9.46;68.17;98130.25;4332432;33;33891;-84
2024/01/04 06:10:58;;;;;;;;;;;;;;;9.41;68.24;98130.41;4324354;33;34186;-85
2024/01/04 06:13:27;;;;;;;;;;;;;;;9.39;68.11;98143.38;4326765;33;32789;-84
2024/01/04 06:15:55;;;;;;;;;;;;;;;9.18;68.83;98137.19;4323042;33;33373;-84
2024/01/04 06:18:24;;;;;;;;;;;;;;;9.39;67.71;98137.38;4331555;33;34079;-85
2024/01/04 06:20:53;;;;;;;;;;;;;;;9.39;67.18;98142.53;4329209;33;34093;-85
2024/01/04 06:23:25;;;;;;;;;;;;;;;9.32;66.93;98139.31;4326429;33;33597;-84
2024/01/04 06:25:53;;;;;;;;;;;;;;;9.28;67.11;98147.22;4326459;33;33412;-85
2024/01/04 06:28:29;;;;;;;;;;;;;;;9.34;66.68;98144.44;4321591;33;34096;-85
2024/01/04 06:31:04;;;;;;;;;;;;;;;9.59;64.23;98147.91;4331266;33;33129;-84
2024/01/04 06:33:32;;;;;;;;;;;;;;;9.48;64.47;98141.41;4327318;33;34072;-84
2024/01/04 06:36:05;;;;;;;;;;;;;;;9.68;63.60;98145.91;4326988;33;33663;-84
2024/01/04 06:38:35;;;;;;;;;;;;;;;9.55;63.48;98148.06;4325502;33;34509;-85
2024/01/04 06:41:07;;;;;;;;;;;;;;;9.46;63.29;98156.13;4324250;33;34861;-85
2024/01/04 06:43:37;;;;;;;;;;;;;;;9.42;63.63;98154.53;4332203;33;32853;-84
2024/01/04 06:46:05;;;;;;;;;;;;;;;9.65;63.13;98161.56;4327765;33;33838;-84
2024/01/04 06:48:36;;;;;;;;;;;;;;;9.42;63.89;98177.84;4323966;33;34058;-85
2024/01/04 06:51:11;;;;;;;;;;;;;;;9.28;64.43;98179.16;4322944;33;34841;-85
2024/01/04 06:53:39;;;;;;;;;;;;;;;9.29;64.05;98182.56;4331310;33;33548;-84
2024/01/04 06:56:11;;;;;;;;;;;;;;;9.19;64.04;98182.03;4327368;33;35944;-84
2024/01/04 06:58:41;;;;;;;;;;;;;;;8.92;65.26;98188.91;4327543;33;33995;-83
2024/01/04 07:01:10;;;;;;;;;;;;;;;9.10;64.49;98195.25;4325048;33;34804;-85
2024/01/04 07:03:39;;;;;;;;;;;;;;;9.10;64.12;98195.25;4326578;33;33668;-84
2024/01/04 07:06:09;;;;;;;;;;;;;;;9.04;64.01;98188.53;4335947;33;34754;-84
2024/01/04 07:08:38;;;;;;;;;;;;;;;8.98;63.97;98181.78;4325198;33;33802;-84
2024/01/04 07:11:07;;;;;;;;;;;;;;;8.89;64.04;98188.97;4329305;33;34062;-84
2024/01/04 07:13:42;;;;;;;;;;;;;;;9.05;64.20;98194.53;4332627;33;32936;-84
2024/01/04 07:16:11;;;;;;;;;;;;;;;8.96;64.89;98193.94;4334461;33;34845;-84
2024/01/04 07:18:42;;;;;;;;;;;;;;;9.07;65.03;98195.34;4333518;33;33773;-84
2024/01/04 07:21:18;;;;;;;;;;;;;;;9.22;64.72;98188.84;4326638;33;34045;-84
2024/01/04 07:23:46;;;;;;;;;;;;;;;8.64;66.80;98191.47;4329925;33;34287;-84
2024/01/04 07:26:19;;;;;;;;;;;;;;;9.07;65.52;98193.59;4326503;33;33436;-84
2024/01/04 07:28:49;;;;;;;;;;;;;;;9.00;65.72;98189.50;4331882;33;33920;-84
2024/01/04 07:31:20;;;;;;;;;;;;;;;9.24;64.59;98179.28;4326686;33;33394;-84
2024/01/04 07:33:49;;;;;;;;;;;;;;;9.12;64.82;98178.78;4330937;33;32961;-84
2024/01/04 07:36:21;;;;;;;;;;;;;;;9.31;63.65;98179.03;4327568;33;33364;-85
2024/01/04 07:38:49;;;;;;;;;;;;;;;8.94;64.81;98182.78;4332070;33;33893;-84
2024/01/04 07:41:18;;;;;;;;;;;;;;;8.98;64.89;98176.59;4331306;33;34395;-84
2024/01/04 07:43:49;;;;;;;;;;;;;;;9.11;64.62;98179.69;4328321;33;33942;-84
2024/01/04 07:46:18;;;;;;;;;;;;;;;9.32;63.85;98183.31;4326467;33;33481;-85
2024/01/04 07:48:49;;;;;;;;;;;;;;;9.31;64.08;98180.78;4317786;33;36708;-84
2024/01/04 07:51:18;;;;;;;;;;;;;;;9.14;64.63;98176.16;4317095;33;34181;-84
2024/01/04 07:53:54;;;;;;;;;;;;;;;9.63;62.57;98179.72;4317559;33;33220;-84
2024/01/04 07:56:23;;;;;;;;;;;;;;;9.78;61.91;98175.75;4325905;33;33757;-84
2024/01/04 07:58:56;;;;;;;;;;;;;;;9.82;61.29;98174.75;4325851;33;33948;-84
2024/01/04 08:01:25;;;;;;;;;;;;;;;9.95;60.69;98173.41;4303065;33;782919;-84
2024/01/04 08:03:55;;;;;;;;;;;;;;;10.00;59.58;98168.09;4330810;33;32703;-84
2024/01/04 08:06:24;;;;;;;;;;;;;;;10.18;59.04;98172.63;4326017;33;33787;-84
2024/01/04 08:08:59;;;;;;;;;;;;;;;10.45;58.18;98170.78;4326179;33;33276;-84
2024/01/04 08:11:27;;;;;;;;;;;;;;;10.57;57.19;98169.50;4326308;33;34276;-84
2024/01/04 08:13:59;;;;;;;;;;;;;;;10.48;57.25;98166.41;4332000;33;33252;-84
2024/01/04 08:16:30;;;;;;;;;;;;;;;10.69;57.04;98165.59;4333274;33;33204;-85
2024/01/04 08:18:58;;;;;;;;;;;;;;;10.92;56.32;98167.31;4328614;33;33547;-84
2024/01/04 08:21:32;;;;;;;;;;;;;;;10.97;56.55;98167.13;4326117;33;33867;-84
2024/01/04 08:24:03;;;;;;;;;;;;;;;10.81;56.34;98174.66;4341220;33;34275;-84
2024/01/04 08:26:35;;;;;;;;;;;;;;;10.91;56.30;98173.41;4332740;33;34299;-84
2024/01/04 08:29:05;;;;;;;;;;;;;;;10.94;55.56;98175.88;4327483;33;33704;-84
2024/01/04 08:31:34;;;;;;;;;;;;;;;11.05;55.86;98178.06;4318446;33;34271;-84
2024/01/04 08:34:03;;;;;;;;;;;;;;;11.21;55.16;98170.50;4327414;33;33415;-84
2024/01/04 08:36:31;;;;;;;;;;;;;;;11.18;55.32;98181.00;4334061;33;33677;-84
2024/01/04 08:39:05;;;;;;;;;;;;;;;11.34;54.42;98178.66;4330016;33;33793;-84
2024/01/04 08:41:38;;;;;;;;;;;;;;;11.15;54.31;98186.31;4323128;33;34809;-84
2024/01/04 08:44:08;;;;;;;;;;;;;;;11.32;52.65;98178.69;4329441;33;33590;-84
2024/01/04 08:46:41;;;;;;;;;;;;;;;11.68;52.94;98181.53;4325105;33;33789;-84
2024/01/04 08:49:11;;;;;;;;;;;;;;;11.45;52.61;98177.31;4331365;33;33964;-84
2024/01/04 08:51:39;;;;;;;;;;;;;;;11.44;52.36;98179.97;4325005;33;34748;-84
2024/01/04 08:54:10;;;;;;;;;;;;;;;11.53;52.59;98182.19;4329751;33;33244;-84
2024/01/04 08:56:45;;;;;;;;;;;;;;;11.46;52.82;98186.78;4331579;33;34062;-84
2024/01/04 08:59:15;;;;;;;;;;;;;;;11.54;52.33;98191.66;4332992;33;33276;-84
2024/01/04 09:01:45;;;;;;;;;;;;;;;11.62;52.47;98193.94;4333971;33;33984;-83
2024/01/04 09:04:14;;;;;;;;;;;;;;;11.91;52.13;98196.22;4331057;33;34139;-84
2024/01/04 09:06:46;;;;;;;;;;;;;;;12.26;51.66;98196.41;4329715;33;34128;-85
2024/01/04 09:09:15;;;;;;;;;;;;;;;11.99;52.49;98200.22;4329533;33;33906;-84
2024/01/04 09:11:48;;;;;;;;;;;;;;;12.23;50.92;98199.16;4340221;33;34434;-84
2024/01/04 09:14:22;;;;;;;;;;;;;;;12.47;49.97;98201.59;4329244;33;33209;-84
2024/01/04 09:16:52;;;;;;;;;;;;;;;12.41;48.46;98196.66;4326814;33;33761;-83
2024/01/04 09:19:21;;;;;;;;;;;;;;;12.19;48.43;98202.81;4325717;33;34271;-83
2024/01/04 09:21:51;;;;;;;;;;;;;;;12.08;48.86;98197.22;4312061;33;33636;-84
2024/01/04 09:24:20;;;;;;;;;;;;;;;12.04;48.51;98187.87;4330585;33;32742;-84
2024/01/04 09:26:50;;;;;;;;;;;;;;;12.18;48.26;98195.94;4325228;33;34451;-84
2024/01/04 09:29:20;;;;;;;;;;;;;;;12.12;48.25;98201.38;4325522;33;34688;-84
2024/01/04 09:31:50;;;;;;;;;;;;;;;12.09;48.88;98198.91;4326225;33;33889;-84
2024/01/04 09:34:19;;;;;;;;;;;;;;;12.06;49.22;98197.28;4337033;33;34347;-83
2024/01/04 09:36:49;;;;;;;;;;;;;;;12.27;48.36;98195.50;4329599;33;34143;-84
2024/01/04 09:39:22;;;;;;;;;;;;;;;12.23;48.32;98190.53;4325529;33;34870;-84
2024/01/04 09:41:57;;;;;;;;;;;;;;;12.19;48.70;98192.41;4327744;33;33962;-84
2024/01/04 09:44:27;;;;;;;;;;;;;;;12.31;47.75;98202.25;4332332;33;34260;-83
2024/01/04 09:46:59;;;;;;;;;;;;;;;12.20;49.00;98194.06;4336003;33;33960;-84
2024/01/04 09:49:27;;;;;;;;;;;;;;;12.28;48.57;98189.41;4330411;33;33904;-83
2024/01/04 09:51:56;;;;;;;;;;;;;;;12.43;47.45;98194.84;4330538;33;34221;-84
2024/01/04 09:54:27;;;;;;;;;;;;;;;12.42;47.13;98188.81;4334964;33;33236;-84
2024/01/04 09:56:57;;;;;;;;;;;;;;;12.35;47.51;98187.37;4335347;33;33818;-84
2024/01/04 09:59:29;;;;;;;;;;;;;;;12.67;47.04;98191.12;4330088;33;33181;-83
2024/01/04 10:02:00;;;;;;;;;;;;;;;12.67;46.38;98185.09;4330000;33;33919;-84
2024/01/04 10:04:29;;;;;;;;;;;;;;;12.57;47.15;98193.31;4334847;33;33340;-84
2024/01/04 10:07:04;;;;;;;;;;;;;;;12.68;46.96;98200.59;4310215;33;32916;-84
2024/01/04 10:09:35;;;;;;;;;;;;;;;12.48;46.74;98203.28;4333254;33;33362;-84
2024/01/04 10:12:07;;;;;;;;;;;;;;;12.65;46.79;98213.75;4329327;33;34010;-84
2024/01/04 10:14:38;;;;;;;;;;;;;;;12.61;47.02;98212.19;4332971;33;33256;-84
2024/01/04 10:17:09;;;;;;;;;;;;;;;12.99;45.45;98210.44;4338901;33;34026;-84
2024/01/04 10:19:40;;;;;;;;;;;;;;;12.98;45.83;98213.97;4334426;33;34079;-85
2024/01/04 10:22:09;;;;;;;;;;;;;;;13.12;44.30;98215.06;4337584;33;34304;-83
2024/01/04 10:24:38;;;;;;;;;;;;;;;13.16;44.26;98216.63;4337233;33;34086;-83
2024/01/04 10:27:08;;;;;;;;;;;;;;;13.21;44.31;98218.09;4326548;33;34355;-84
2024/01/04 10:29:41;;;;;;;;;;;;;;;13.18;44.31;98222.63;4329498;33;35428;-84
2024/01/04 10:32:11;;;;;;;;;;;;;;;13.24;44.99;98225.78;4335495;33;33864;-84
2024/01/04 10:34:40;;;;;;;;;;;;;;;13.14;44.73;98221.06;4333281;33;34275;-83
2024/01/04 10:37:12;;;;;;;;;;;;;;;12.86;44.71;98221.53;4329390;33;33601;-83
2024/01/04 10:39:45;;;;;;;;;;;;;;;13.05;45.03;98230.16;4320804;33;34371;-83
2024/01/04 10:42:16;;;;;;;;;;;;;;;13.05;45.43;98227.56;4332380;33;33925;-83
2024/01/04 10:44:46;;;;;;;;;;;;;;;13.22;44.21;98225.00;4337198;33;33895;-84
2024/01/04 10:47:16;;;;;;;;;;;;;;;13.07;44.66;98223.13;4329538;33;34672;-82
2024/01/04 10:49:46;;;;;;;;;;;;;;;13.09;44.34;98216.06;4323789;33;33554;-83
2024/01/04 10:52:16;;;;;;;;;;;;;;;12.88;45.00;98222.25;4327177;33;34533;-83
2024/01/04 10:54:44;;;;;;;;;;;;;;;12.92;45.00;98218.63;4325600;33;33726;-83
2024/01/04 10:57:17;;;;;;;;;;;;;;;12.79;45.07;98205.34;4325997;33;33763;-83
2024/01/04 10:59:47;;;;;;;;;;;;;;;12.80;45.51;98210.44;4320707;33;34087;-84
2024/01/04 11:02:16;;;;;;;;;;;;;;;12.76;45.09;98208.94;4324064;33;34293;-83
2024/01/04 11:04:45;;;;;;;;;;;;;;;12.99;44.60;98199.19;4324991;33;33625;-83
2024/01/04 11:07:17;;;;;;;;;;;;;;;12.78;44.56;98207.09;4327624;33;33905;-83
2024/01/04 11:09:48;;;;;;;;;;;;;;;12.75;45.38;98183.78;4319065;33;33937;-84
2024/01/04 11:12:18;;;;;;;;;;;;;;;13.00;44.82;98190.50;4311177;33;32276;-84
2024/01/04 11:14:48;;;;;;;;;;;;;;;12.94;45.58;98194.19;4325115;33;32913;-84
2024/01/04 11:17:21;;;;;;;;;;;;;;;12.99;44.63;98202.63;4331246;33;34947;-84
2024/01/04 11:19:55;;;;;;;;;;;;;;;13.03;44.81;98193.78;4325245;33;33765;-84
2024/01/04 11:22:51;;;;;;;;;;;;;;;12.82;45.17;98195.63;4324863;33;35095;-83
2024/01/04 11:25:24;;;;;;;;;;;;;;;12.84;44.86;98194.72;4330219;33;33508;-84
2024/01/04 11:27:57;;;;;;;;;;;;;;;12.90;45.44;98199.63;4324677;33;33629;-84
2024/01/04 11:30:29;;;;;;;;;;;;;;;13.12;44.47;98204.66;4325406;33;35032;-84
2024/01/04 11:32:59;;;;;;;;;;;;;;;13.06;44.18;98199.75;4330325;33;33694;-83
2024/01/04 11:35:29;;;;;;;;;;;;;;;12.73;45.49;98195.19;4328524;33;33680;-84
2024/01/04 11:37:59;;;;;;;;;;;;;;;12.73;45.45;98193.47;4325365;33;34181;-83
2024/01/04 11:40:29;;;;;;;;;;;;;;;12.71;45.21;98195.28;4325969;33;34597;-83
2024/01/04 11:43:05;;;;;;;;;;;;;;;12.90;45.46;98195.28;4330201;33;35052;-84
2024/01/04 11:45:35;;;;;;;;;;;;;;;13.02;44.81;98204.25;4327376;33;33082;-83
2024/01/04 11:48:04;;;;;;;;;;;;;;;13.03;45.34;98198.97;4324732;33;35002;-84
2024/01/04 11:50:40;;;;;;;;;;;;;;;12.76;45.45;98198.50;4325495;33;33893;-83
2024/01/04 11:53:10;;;;;;;;;;;;;;;12.54;45.70;98200.38;4325856;33;33841;-85
2024/01/04 11:55:38;;;;;;;;;;;;;;;12.55;45.98;98215.94;4330383;33;33671;-85
2024/01/04 11:58:08;;;;;;;;;;;;;;;12.57;46.11;98192.47;4329964;33;33857;-85
2024/01/04 12:00:47;;;;;;;;;;;;;;;12.59;46.78;98195.84;4332224;33;34034;-84
2024/01/04 12:03:17;;;;;;;;;;;;;;;12.44;46.54;98202.56;4326457;33;34776;-84
2024/01/04 12:05:51;;;;;;;;;;;;;;;12.27;46.77;98195.50;4325058;33;32657;-85
2024/01/04 12:08:23;;;;;;;;;;;;;;;12.09;46.95;98188.53;4331375;33;33495;-85
2024/01/04 12:10:55;;;;;;;;;;;;;;;12.20;47.71;98206.25;4331079;33;34658;-84
2024/01/04 12:13:25;;;;;;;;;;;;;;;12.28;46.62;98212.81;4319180;33;34263;-85
2024/01/04 12:15:55;;;;;;;;;;;;;;;12.01;47.16;98224.38;4327101;33;33732;-85
2024/01/04 12:18:24;;;;;;;;;;;;;;;12.06;47.42;98228.50;4332763;33;33879;-84
2024/01/04 12:20:59;;;;;;;;;;;;;;;12.03;47.17;98235.56;4328369;33;32229;-84
2024/01/04 12:23:42;;;;;;;;;;;;;;;12.27;47.05;98233.66;4328033;33;33561;-84
2024/01/04 12:26:12;;;;;;;;;;;;;;;12.20;49.59;98240.87;4333649;33;34223;-84
2024/01/04 12:28:40;;;;;;;;;;;;;;;12.25;47.87;98261.47;4323025;33;34840;-85
2024/01/04 12:31:13;;;;;;;;;;;;;;;12.09;48.24;98249.16;4330917;33;34170;-85
2024/01/04 12:33:44;;;;;;;;;;;;;;;12.14;48.31;98252.38;4321994;33;34195;-85
2024/01/04 12:36:19;;;;;;;;;;;;;;;12.13;49.96;98244.69;4327788;33;32637;-85
2024/01/04 12:38:48;;;;;;;;;;;;;;;12.26;51.36;98248.44;4332778;33;34156;-84
2024/01/04 12:41:24;;;;;;;;;;;;;;;12.19;50.64;98235.75;4333491;33;34856;-86
2024/01/04 12:43:53;;;;;;;;;;;;;;;12.19;53.45;98248.75;4345870;33;34443;-84
2024/01/04 12:46:24;;;;;;;;;;;;;;;12.10;52.36;98236.97;4339633;33;33919;-85
2024/01/04 12:48:59;;;;;;;;;;;;;;;12.02;52.69;98233.88;4340421;33;33191;-86
2024/01/04 12:51:28;;;;;;;;;;;;;;;11.69;53.01;98244.72;4337943;33;34629;-85
2024/01/04 12:53:59;;;;;;;;;;;;;;;11.89;52.12;98230.97;4330377;33;33905;-84
2024/01/04 12:56:27;;;;;;;;;;;;;;;12.01;52.20;98219.19;4328901;33;33669;-86
2024/01/04 12:59:01;;;;;;;;;;;;;;;12.07;52.16;98221.53;4328424;33;33544;-86
2024/01/04 13:01:31;;;;;;;;;;;;;;;12.34;50.29;98222.09;4325076;33;34016;-85
2024/01/04 13:04:00;;;;;;;;;;;;;;;12.12;50.19;98228.22;4326585;33;34122;-85
2024/01/04 13:06:30;;;;;;;;;;;;;;;12.22;49.80;98220.84;4328669;33;33846;-85
2024/01/04 13:09:05;;;;;;;;;;;;;;;12.21;49.88;98221.78;4320729;33;34105;-84